sensor_id;sensor_type;location;lat;lon;timestamp;temperature;humidity
14527;DHT22;7350;51.208;4.238;2023-01-04T00:01:46;9.50;99.90
14527;DHT22;7350;51.208;4.238;2023-01-04T00:04:13;9.60;99.90
14527;DHT22;7350;51.208;4.238;2023-01-04T00:06:41;9.60;99.90
14527;DHT22;7350;51.208;4.238;2023-01-04T00:09:08;9.50;99.90
14527;DHT22;7350;51.208;4.238;2023-01-04T00:11:35;9.60;99.90
14527;DHT22;7350;51.208;4.238;2023-01-04T00:14:02;9.80;99.90
14527;DHT22;7350;51.208;4.238;2023-01-04T00:16:29;9.90;99.90
14527;DHT22;7350;51.208;4.238;2023-01-04T00:18:56;9.90;99.90
14527;DHT22;7350;51.208;4.238;2023-01-04T00:21:25;9.90;99.90
14527;DHT22;7350;51.208;4.238;2023-01-04T00:23:55;9.90;99.90
14527;DHT22;7350;51.208;4.238;2023-01-04T00:26:24;10.00;99.90
14527;DHT22;7350;51.208;4.238;2023-01-04T00:28:56;10.00;99.90
14527;DHT22;7350;51.208;4.238;2023-01-04T00:31:23;9.90;99.90
14527;DHT22;7350;51.208;4.238;2023-01-04T00:33:53;10.00;99.90
14527;DHT22;7350;51.208;4.238;2023-01-04T00:36:20;9.90;99.90
14527;DHT22;7350;51.208;4.238;2023-01-04T00:38:48;10.00;99.90
14527;DHT22;7350;51.208;4.238;2023-01-04T00:41:33;10.00;99.90
14527;DHT22;7350;51.208;4.238;2023-01-04T00:44:00;10.00;99.90
14527;DHT22;7350;51.208;4.238;2023-01-04T00:46:29;10.10;99.90
14527;DHT22;7350;51.208;4.238;2023-01-04T00:48:57;10.10;99.90
14527;DHT22;7350;51.208;4.238;2023-01-04T00:51:24;10.10;99.90
14527;DHT22;7350;51.208;4.238;2023-01-04T00:53:51;10.10;99.90
14527;DHT22;7350;51.208;4.238;2023-01-04T00:56:18;10.10;99.90
14527;DHT22;7350;51.208;4.238;2023-01-04T00:58:46;10.10;99.90
14527;DHT22;7350;51.208;4.238;2023-01-04T01:01:13;10.10;99.90
14527;DHT22;7350;51.208;4.238;2023-01-04T01:03:42;10.10;99.90
14527;DHT22;7350;51.208;4.238;2023-01-04T01:06:09;10.10;99.90
14527;DHT22;7350;51.208;4.238;2023-01-04T01:08:37;10.10;99.90
14527;DHT22;7350;51.208;4.238;2023-01-04T01:11:05;10.20;99.90
14527;DHT22;7350;51.208;4.238;2023-01-04T01:13:34;10.30;99.90
14527;DHT22;7350;51.208;4.238;2023-01-04T01:16:06;10.30;99.90
14527;DHT22;7350;51.208;4.238;2023-01-04T01:18:35;10.30;99.90
14527;DHT22;7350;51.208;4.238;2023-01-04T01:21:04;10.30;99.90
14527;DHT22;7350;51.208;4.238;2023-01-04T01:23:31;10.20;99.90
14527;DHT22;7350;51.208;4.238;2023-01-04T01:25:59;10.20;99.90
14527;DHT22;7350;51.208;4.238;2023-01-04T01:28:27;10.30;99.90
14527;DHT22;7350;51.208;4.238;2023-01-04T01:30:54;10.30;99.90
14527;DHT22;7350;51.208;4.238;2023-01-04T01:33:22;10.20;99.90
14527;DHT22;7350;51.208;4.238;2023-01-04T01:35:49;10.20;99.90
14527;DHT22;7350;51.208;4.238;2023-01-04T01:38:16;10.20;99.90
14527;DHT22;7350;51.208;4.238;2023-01-04T01:40:44;10.20;99.90
14527;DHT22;7350;51.208;4.238;2023-01-04T01:43:16;10.30;99.90
14527;DHT22;7350;51.208;4.238;2023-01-04T01:45:44;10.30;99.90
14527;DHT22;7350;51.208;4.238;2023-01-04T01:48:16;10.40;99.90
14527;DHT22;7350;51.208;4.238;2023-01-04T01:50:47;10.50;99.90
14527;DHT22;7350;51.208;4.238;2023-01-04T01:53:16;10.50;99.90
14527;DHT22;7350;51.208;4.238;2023-01-04T01:55:44;10.50;99.90
14527;DHT22;7350;51.208;4.238;2023-01-04T01:58:19;10.60;99.90
14527;DHT22;7350;51.208;4.238;2023-01-04T02:00:46;10.50;99.90
14527;DHT22;7350;51.208;4.238;2023-01-04T02:03:15;10.50;99.90
14527;DHT22;7350;51.208;4.238;2023-01-04T02:05:50;10.50;99.90
14527;DHT22;7350;51.208;4.238;2023-01-04T02:08:19;10.40;99.90
14527;DHT22;7350;51.208;4.238;2023-01-04T02:10:48;10.50;99.90
14527;DHT22;7350;51.208;4.238;2023-01-04T02:13:17;10.50;99.90
14527;DHT22;7350;51.208;4.238;2023-01-04T02:15:57;10.50;99.90
14527;DHT22;7350;51.208;4.238;2023-01-04T02:18:29;10.50;99.90
14527;DHT22;7350;51.208;4.238;2023-01-04T02:21:01;10.50;99.90
14527;DHT22;7350;51.208;4.238;2023-01-04T02:26:55;10.60;99.90
14527;DHT22;7350;51.208;4.238;2023-01-04T02:32:37;10.70;99.90
14527;DHT22;7350;51.208;4.238;2023-01-04T02:35:14;10.70;99.90
14527;DHT22;7350;51.208;4.238;2023-01-04T02:37:49;10.70;99.90
14527;DHT22;7350;51.208;4.238;2023-01-04T02:40:20;10.70;99.90
14527;DHT22;7350;51.208;4.238;2023-01-04T02:42:55;10.70;99.90
14527;DHT22;7350;51.208;4.238;2023-01-04T02:45:45;10.80;99.90
14527;DHT22;7350;51.208;4.238;2023-01-04T02:48:16;10.70;99.90
14527;DHT22;7350;51.208;4.238;2023-01-04T02:51:01;10.70;99.90
14527;DHT22;7350;51.208;4.238;2023-01-04T02:53:30;10.70;99.90
14527;DHT22;7350;51.208;4.238;2023-01-04T02:56:08;10.80;99.90
14527;DHT22;7350;51.208;4.238;2023-01-04T02:58:55;10.80;99.90
14527;DHT22;7350;51.208;4.238;2023-01-04T03:01:27;10.80;99.90
14527;DHT22;7350;51.208;4.238;2023-01-04T03:04:32;10.80;99.90
14527;DHT22;7350;51.208;4.238;2023-01-04T03:07:25;10.80;99.90
14527;DHT22;7350;51.208;4.238;2023-01-04T03:09:57;10.80;99.90
14527;DHT22;7350;51.208;4.238;2023-01-04T03:12:26;10.90;99.90
14527;DHT22;7350;51.208;4.238;2023-01-04T03:15:00;11.00;99.90
14527;DHT22;7350;51.208;4.238;2023-01-04T03:17:34;10.90;99.90
14527;DHT22;7350;51.208;4.238;2023-01-04T03:20:06;10.90;99.90
14527;DHT22;7350;51.208;4.238;2023-01-04T03:22:38;10.80;99.90
14527;DHT22;7350;51.208;4.238;2023-01-04T03:25:29;10.80;99.90
14527;DHT22;7350;51.208;4.238;2023-01-04T03:28:15;10.80;99.90
14527;DHT22;7350;51.208;4.238;2023-01-04T03:31:06;10.80;99.90
14527;DHT22;7350;51.208;4.238;2023-01-04T03:33:52;10.80;99.90
14527;DHT22;7350;51.208;4.238;2023-01-04T03:37:02;10.90;99.90
14527;DHT22;7350;51.208;4.238;2023-01-04T03:39:40;10.80;99.90
14527;DHT22;7350;51.208;4.238;2023-01-04T03:42:30;10.90;99.90
14527;DHT22;7350;51.208;4.238;2023-01-04T03:45:18;10.90;99.90
14527;DHT22;7350;51.208;4.238;2023-01-04T03:48:09;11.00;99.90
14527;DHT22;7350;51.208;4.238;2023-01-04T03:51:02;11.10;99.90
14527;DHT22;7350;51.208;4.238;2023-01-04T03:53:36;11.00;99.90
14527;DHT22;7350;51.208;4.238;2023-01-04T03:56:06;11.10;99.90
14527;DHT22;7350;51.208;4.238;2023-01-04T03:58:34;11.10;99.90
14527;DHT22;7350;51.208;4.238;2023-01-04T04:01:03;11.10;99.90
14527;DHT22;7350;51.208;4.238;2023-01-04T04:03:30;11.10;99.90
14527;DHT22;7350;51.208;4.238;2023-01-04T04:06:14;11.20;99.90
14527;DHT22;7350;51.208;4.238;2023-01-04T04:09:00;11.30;99.90
14527;DHT22;7350;51.208;4.238;2023-01-04T04:11:27;11.30;99.90
14527;DHT22;7350;51.208;4.238;2023-01-04T04:13:58;11.30;99.90
14527;DHT22;7350;51.208;4.238;2023-01-04T04:16:26;11.20;99.90
14527;DHT22;7350;51.208;4.238;2023-01-04T04:18:53;11.20;99.90
14527;DHT22;7350;51.208;4.238;2023-01-04T04:21:21;11.30;99.90
14527;DHT22;7350;51.208;4.238;2023-01-04T04:23:48;11.40;99.90
14527;DHT22;7350;51.208;4.238;2023-01-04T04:26:16;11.40;99.90
14527;DHT22;7350;51.208;4.238;2023-01-04T04:28:44;11.40;99.90
14527;DHT22;7350;51.208;4.238;2023-01-04T04:31:11;11.20;99.90
14527;DHT22;7350;51.208;4.238;2023-01-04T04:33:38;11.30;99.90
14527;DHT22;7350;51.208;4.238;2023-01-04T04:36:06;11.30;99.90
14527;DHT22;7350;51.208;4.238;2023-01-04T04:38:34;11.40;99.90
14527;DHT22;7350;51.208;4.238;2023-01-04T04:41:05;11.40;99.90
14527;DHT22;7350;51.208;4.238;2023-01-04T04:43:52;11.60;99.90
14527;DHT22;7350;51.208;4.238;2023-01-04T04:46:19;11.50;99.90
14527;DHT22;7350;51.208;4.238;2023-01-04T04:48:46;11.50;99.90
14527;DHT22;7350;51.208;4.238;2023-01-04T04:51:13;11.50;99.90
14527;DHT22;7350;51.208;4.238;2023-01-04T04:53:40;11.40;99.90
14527;DHT22;7350;51.208;4.238;2023-01-04T04:56:07;11.40;99.90
14527;DHT22;7350;51.208;4.238;2023-01-04T04:58:35;11.40;99.90
14527;DHT22;7350;51.208;4.238;2023-01-04T05:01:04;11.40;99.90
14527;DHT22;7350;51.208;4.238;2023-01-04T05:03:31;11.50;99.90
14527;DHT22;7350;51.208;4.238;2023-01-04T05:05:58;11.60;99.90
14527;DHT22;7350;51.208;4.238;2023-01-04T05:08:26;11.50;99.90
14527;DHT22;7350;51.208;4.238;2023-01-04T05:10:53;11.50;99.90
14527;DHT22;7350;51.208;4.238;2023-01-04T05:13:20;11.40;99.90
14527;DHT22;7350;51.208;4.238;2023-01-04T05:15:48;11.50;99.90
14527;DHT22;7350;51.208;4.238;2023-01-04T05:18:19;11.50;99.90
14527;DHT22;7350;51.208;4.238;2023-01-04T05:20:46;11.60;99.90
14527;DHT22;7350;51.208;4.238;2023-01-04T05:23:15;11.50;99.90
14527;DHT22;7350;51.208;4.238;2023-01-04T05:25:42;11.60;99.90
14527;DHT22;7350;51.208;4.238;2023-01-04T05:28:10;11.70;99.90
14527;DHT22;7350;51.208;4.238;2023-01-04T05:30:37;11.60;99.90
14527;DHT22;7350;51.208;4.238;2023-01-04T05:33:17;11.70;99.90
14527;DHT22;7350;51.208;4.238;2023-01-04T05:35:45;11.60;99.90
14527;DHT22;7350;51.208;4.238;2023-01-04T05:38:12;11.70;99.90
14527;DHT22;7350;51.208;4.238;2023-01-04T05:40:39;11.70;99.90
14527;DHT22;7350;51.208;4.238;2023-01-04T05:43:06;11.80;99.90
14527;DHT22;7350;51.208;4.238;2023-01-04T05:45:34;11.80;99.90
14527;DHT22;7350;51.208;4.238;2023-01-04T05:48:01;11.70;99.90
14527;DHT22;7350;51.208;4.238;2023-01-04T05:50:29;11.80;99.90
14527;DHT22;7350;51.208;4.238;2023-01-04T05:52:56;11.70;99.90
14527;DHT22;7350;51.208;4.238;2023-01-04T05:55:23;11.50;99.90
14527;DHT22;7350;51.208;4.238;2023-01-04T05:57:50;11.40;99.90
14527;DHT22;7350;51.208;4.238;2023-01-04T06:00:18;11.40;99.90
14527;DHT22;7350;51.208;4.238;2023-01-04T06:02:45;11.50;99.90
14527;DHT22;7350;51.208;4.238;2023-01-04T06:05:12;11.40;99.90
14527;DHT22;7350;51.208;4.238;2023-01-04T06:07:40;11.40;99.90
14527;DHT22;7350;51.208;4.238;2023-01-04T06:10:09;11.40;99.90
14527;DHT22;7350;51.208;4.238;2023-01-04T06:12:36;11.40;99.90
14527;DHT22;7350;51.208;4.238;2023-01-04T06:15:04;11.50;99.90
14527;DHT22;7350;51.208;4.238;2023-01-04T06:17:32;11.50;99.90
14527;DHT22;7350;51.208;4.238;2023-01-04T06:19:59;11.50;99.90
14527;DHT22;7350;51.208;4.238;2023-01-04T06:22:27;11.60;99.90
14527;DHT22;7350;51.208;4.238;2023-01-04T06:24:55;11.60;99.90
14527;DHT22;7350;51.208;4.238;2023-01-04T06:27:22;11.70;99.90
14527;DHT22;7350;51.208;4.238;2023-01-04T06:29:49;11.60;99.90
14527;DHT22;7350;51.208;4.238;2023-01-04T06:32:17;11.70;99.90
14527;DHT22;7350;51.208;4.238;2023-01-04T06:34:44;11.70;99.90
14527;DHT22;7350;51.208;4.238;2023-01-04T06:37:11;11.80;99.90
14527;DHT22;7350;51.208;4.238;2023-01-04T06:39:38;11.90;99.90
14527;DHT22;7350;51.208;4.238;2023-01-04T06:42:07;11.80;99.90
14527;DHT22;7350;51.208;4.238;2023-01-04T06:44:55;11.80;99.90
14527;DHT22;7350;51.208;4.238;2023-01-04T06:47:22;11.80;99.90
14527;DHT22;7350;51.208;4.238;2023-01-04T06:49:49;11.80;99.90
14527;DHT22;7350;51.208;4.238;2023-01-04T06:52:16;11.80;99.90
14527;DHT22;7350;51.208;4.238;2023-01-04T06:54:42;11.70;99.90
14527;DHT22;7350;51.208;4.238;2023-01-04T06:57:11;11.80;99.90
14527;DHT22;7350;51.208;4.238;2023-01-04T06:59:38;11.70;99.90
14527;DHT22;7350;51.208;4.238;2023-01-04T07:02:05;11.70;99.90
14527;DHT22;7350;51.208;4.238;2023-01-04T07:04:32;11.70;99.90
14527;DHT22;7350;51.208;4.238;2023-01-04T07:06:59;11.80;99.90
14527;DHT22;7350;51.208;4.238;2023-01-04T07:09:27;11.80;99.90
14527;DHT22;7350;51.208;4.238;2023-01-04T07:11:54;11.80;99.90
14527;DHT22;7350;51.208;4.238;2023-01-04T07:14:23;11.80;99.90
14527;DHT22;7350;51.208;4.238;2023-01-04T07:16:50;11.80;99.90
14527;DHT22;7350;51.208;4.238;2023-01-04T07:19:17;11.90;99.90
14527;DHT22;7350;51.208;4.238;2023-01-04T07:21:44;11.90;99.90
14527;DHT22;7350;51.208;4.238;2023-01-04T07:24:11;11.80;99.90
14527;DHT22;7350;51.208;4.238;2023-01-04T07:26:38;11.90;99.90
14527;DHT22;7350;51.208;4.238;2023-01-04T07:29:05;11.90;99.90
14527;DHT22;7350;51.208;4.238;2023-01-04T07:31:46;11.90;99.90
14527;DHT22;7350;51.208;4.238;2023-01-04T07:34:14;11.90;99.90
14527;DHT22;7350;51.208;4.238;2023-01-04T07:36:41;11.90;99.90
14527;DHT22;7350;51.208;4.238;2023-01-04T07:39:08;11.90;99.90
14527;DHT22;7350;51.208;4.238;2023-01-04T07:41:37;11.80;99.90
14527;DHT22;7350;51.208;4.238;2023-01-04T07:44:05;11.90;99.90
14527;DHT22;7350;51.208;4.238;2023-01-04T07:46:33;11.90;99.90
14527;DHT22;7350;51.208;4.238;2023-01-04T07:49:02;12.10;99.90
14527;DHT22;7350;51.208;4.238;2023-01-04T07:51:31;12.00;99.90
14527;DHT22;7350;51.208;4.238;2023-01-04T07:53:58;12.10;99.90
14527;DHT22;7350;51.208;4.238;2023-01-04T07:56:25;12.20;99.90
14527;DHT22;7350;51.208;4.238;2023-01-04T07:58:52;12.20;99.90
14527;DHT22;7350;51.208;4.238;2023-01-04T08:01:23;12.30;99.90
14527;DHT22;7350;51.208;4.238;2023-01-04T08:03:50;12.50;99.90
14527;DHT22;7350;51.208;4.238;2023-01-04T08:06:20;12.50;99.90
14527;DHT22;7350;51.208;4.238;2023-01-04T08:08:47;12.50;99.90
14527;DHT22;7350;51.208;4.238;2023-01-04T08:11:16;12.60;99.90
14527;DHT22;7350;51.208;4.238;2023-01-04T08:13:43;12.60;99.90
14527;DHT22;7350;51.208;4.238;2023-01-04T08:16:18;12.40;99.90
14527;DHT22;7350;51.208;4.238;2023-01-04T08:18:46;12.40;99.90
14527;DHT22;7350;51.208;4.238;2023-01-04T08:21:13;12.40;99.90
14527;DHT22;7350;51.208;4.238;2023-01-04T08:23:41;12.40;99.90
14527;DHT22;7350;51.208;4.238;2023-01-04T08:26:11;12.50;99.90
14527;DHT22;7350;51.208;4.238;2023-01-04T08:28:38;12.50;99.90
14527;DHT22;7350;51.208;4.238;2023-01-04T08:31:07;12.60;99.90
14527;DHT22;7350;51.208;4.238;2023-01-04T08:33:36;12.60;99.90
14527;DHT22;7350;51.208;4.238;2023-01-04T08:36:07;12.60;99.90
14527;DHT22;7350;51.208;4.238;2023-01-04T08:38:34;12.40;99.90
14527;DHT22;7350;51.208;4.238;2023-01-04T08:41:03;12.40;99.90
14527;DHT22;7350;51.208;4.238;2023-01-04T08:43:30;12.50;99.90
14527;DHT22;7350;51.208;4.238;2023-01-04T08:45:57;12.50;99.90
14527;DHT22;7350;51.208;4.238;2023-01-04T08:48:24;12.60;99.90
14527;DHT22;7350;51.208;4.238;2023-01-04T08:50:51;12.50;99.90
14527;DHT22;7350;51.208;4.238;2023-01-04T08:53:18;12.60;99.90
14527;DHT22;7350;51.208;4.238;2023-01-04T08:55:51;12.70;99.90
14527;DHT22;7350;51.208;4.238;2023-01-04T08:58:20;12.70;99.90
14527;DHT22;7350;51.208;4.238;2023-01-04T09:00:47;12.80;99.90
14527;DHT22;7350;51.208;4.238;2023-01-04T09:03:14;12.80;99.90
14527;DHT22;7350;51.208;4.238;2023-01-04T09:05:42;12.80;99.90
14527;DHT22;7350;51.208;4.238;2023-01-04T09:08:09;12.80;99.90
14527;DHT22;7350;51.208;4.238;2023-01-04T09:10:37;12.80;99.90
14527;DHT22;7350;51.208;4.238;2023-01-04T09:13:04;12.60;99.90
14527;DHT22;7350;51.208;4.238;2023-01-04T09:15:32;12.70;99.90
14527;DHT22;7350;51.208;4.238;2023-01-04T09:18:00;12.70;99.90
14527;DHT22;7350;51.208;4.238;2023-01-04T09:20:27;12.70;99.90
14527;DHT22;7350;51.208;4.238;2023-01-04T09:22:56;12.80;99.90
14527;DHT22;7350;51.208;4.238;2023-01-04T09:25:23;12.70;99.90
14527;DHT22;7350;51.208;4.238;2023-01-04T09:27:50;12.80;99.90
14527;DHT22;7350;51.208;4.238;2023-01-04T09:30:17;12.70;99.90
14527;DHT22;7350;51.208;4.238;2023-01-04T09:32:45;12.80;99.90
14527;DHT22;7350;51.208;4.238;2023-01-04T09:35:12;12.80;99.90
14527;DHT22;7350;51.208;4.238;2023-01-04T09:37:40;12.70;99.90
14527;DHT22;7350;51.208;4.238;2023-01-04T09:40:11;12.70;99.90
14527;DHT22;7350;51.208;4.238;2023-01-04T09:42:44;12.70;99.90
14527;DHT22;7350;51.208;4.238;2023-01-04T09:45:16;12.80;99.90
14527;DHT22;7350;51.208;4.238;2023-01-04T09:47:49;12.80;99.90
14527;DHT22;7350;51.208;4.238;2023-01-04T09:50:20;12.70;99.90
14527;DHT22;7350;51.208;4.238;2023-01-04T09:52:59;12.70;99.90
14527;DHT22;7350;51.208;4.238;2023-01-04T09:55:31;12.80;99.90
14527;DHT22;7350;51.208;4.238;2023-01-04T09:58:04;12.70;99.90
14527;DHT22;7350;51.208;4.238;2023-01-04T10:00:35;12.80;99.90
14527;DHT22;7350;51.208;4.238;2023-01-04T10:03:09;12.80;99.90
14527;DHT22;7350;51.208;4.238;2023-01-04T10:05:37;12.70;99.90
14527;DHT22;7350;51.208;4.238;2023-01-04T10:08:13;12.60;99.90
14527;DHT22;7350;51.208;4.238;2023-01-04T10:10:48;12.60;99.90
14527;DHT22;7350;51.208;4.238;2023-01-04T10:13:25;12.60;99.90
14527;DHT22;7350;51.208;4.238;2023-01-04T10:16:05;12.60;99.90
14527;DHT22;7350;51.208;4.238;2023-01-04T10:18:41;12.70;99.90
14527;DHT22;7350;51.208;4.238;2023-01-04T10:21:27;12.70;99.90
14527;DHT22;7350;51.208;4.238;2023-01-04T10:24:12;12.80;99.90
14527;DHT22;7350;51.208;4.238;2023-01-04T10:26:45;12.70;99.90
14527;DHT22;7350;51.208;4.238;2023-01-04T10:29:38;12.60;99.90
14527;DHT22;7350;51.208;4.238;2023-01-04T10:32:13;12.70;99.90
14527;DHT22;7350;51.208;4.238;2023-01-04T10:34:44;12.60;99.90
14527;DHT22;7350;51.208;4.238;2023-01-04T10:37:14;12.70;99.90
14527;DHT22;7350;51.208;4.238;2023-01-04T10:39:42;12.60;99.90
14527;DHT22;7350;51.208;4.238;2023-01-04T10:42:16;12.60;99.90
14527;DHT22;7350;51.208;4.238;2023-01-04T10:44:54;12.60;99.90
14527;DHT22;7350;51.208;4.238;2023-01-04T10:47:30;12.70;99.90
14527;DHT22;7350;51.208;4.238;2023-01-04T10:50:04;12.60;99.90
14527;DHT22;7350;51.208;4.238;2023-01-04T10:52:37;12.60;99.90
14527;DHT22;7350;51.208;4.238;2023-01-04T10:55:11;12.70;99.90
14527;DHT22;7350;51.208;4.238;2023-01-04T10:57:47;12.70;99.90
14527;DHT22;7350;51.208;4.238;2023-01-04T11:00:18;12.80;99.90
14527;DHT22;7350;51.208;4.238;2023-01-04T11:02:49;12.80;99.90
14527;DHT22;7350;51.208;4.238;2023-01-04T11:05:22;12.80;99.90
14527;DHT22;7350;51.208;4.238;2023-01-04T11:07:54;12.90;99.90
14527;DHT22;7350;51.208;4.238;2023-01-04T11:10:25;13.00;99.90
14527;DHT22;7350;51.208;4.238;2023-01-04T11:12:53;13.10;99.90
14527;DHT22;7350;51.208;4.238;2023-01-04T11:15:20;13.10;99.90
14527;DHT22;7350;51.208;4.238;2023-01-04T11:17:48;13.10;99.90
14527;DHT22;7350;51.208;4.238;2023-01-04T11:20:16;13.10;99.90
14527;DHT22;7350;51.208;4.238;2023-01-04T11:22:49;13.00;99.90
14527;DHT22;7350;51.208;4.238;2023-01-04T11:25:20;12.90;99.90
14527;DHT22;7350;51.208;4.238;2023-01-04T11:27:51;12.90;99.90
14527;DHT22;7350;51.208;4.238;2023-01-04T11:30:22;12.90;99.90
14527;DHT22;7350;51.208;4.238;2023-01-04T11:32:55;12.90;99.90
14527;DHT22;7350;51.208;4.238;2023-01-04T11:35:40;12.90;99.90
14527;DHT22;7350;51.208;4.238;2023-01-04T11:38:14;12.90;99.90
14527;DHT22;7350;51.208;4.238;2023-01-04T11:40:43;13.00;99.90
14527;DHT22;7350;51.208;4.238;2023-01-04T11:43:20;13.00;99.90
14527;DHT22;7350;51.208;4.238;2023-01-04T11:45:58;13.00;99.90
14527;DHT22;7350;51.208;4.238;2023-01-04T11:48:35;13.20;99.90
14527;DHT22;7350;51.208;4.238;2023-01-04T11:51:03;13.30;99.90
14527;DHT22;7350;51.208;4.238;2023-01-04T11:53:34;13.20;99.90
14527;DHT22;7350;51.208;4.238;2023-01-04T11:56:11;13.10;99.90
14527;DHT22;7350;51.208;4.238;2023-01-04T11:58:39;12.90;99.90
14527;DHT22;7350;51.208;4.238;2023-01-04T12:01:19;12.90;99.90
14527;DHT22;7350;51.208;4.238;2023-01-04T12:03:47;13.00;99.90
14527;DHT22;7350;51.208;4.238;2023-01-04T12:06:17;13.10;99.90
14527;DHT22;7350;51.208;4.238;2023-01-04T12:08:46;13.00;99.90
14527;DHT22;7350;51.208;4.238;2023-01-04T12:11:19;13.20;99.90
14527;DHT22;7350;51.208;4.238;2023-01-04T12:13:47;13.30;99.90
14527;DHT22;7350;51.208;4.238;2023-01-04T12:16:21;13.30;99.90
14527;DHT22;7350;51.208;4.238;2023-01-04T12:18:52;13.30;99.90
14527;DHT22;7350;51.208;4.238;2023-01-04T12:21:21;13.30;99.90
14527;DHT22;7350;51.208;4.238;2023-01-04T12:23:50;13.40;99.90
14527;DHT22;7350;51.208;4.238;2023-01-04T12:26:19;13.30;99.90
14527;DHT22;7350;51.208;4.238;2023-01-04T12:28:49;13.30;99.90
14527;DHT22;7350;51.208;4.238;2023-01-04T12:31:29;13.30;99.90
14527;DHT22;7350;51.208;4.238;2023-01-04T12:36:57;13.30;99.90
14527;DHT22;7350;51.208;4.238;2023-01-04T12:39:37;13.30;99.90
14527;DHT22;7350;51.208;4.238;2023-01-04T12:42:15;13.50;99.90
14527;DHT22;7350;51.208;4.238;2023-01-04T12:45:17;13.40;99.90
14527;DHT22;7350;51.208;4.238;2023-01-04T12:47:53;13.30;99.90
14527;DHT22;7350;51.208;4.238;2023-01-04T12:53:56;13.60;99.90
14527;DHT22;7350;51.208;4.238;2023-01-04T12:59:36;13.60;99.90
14527;DHT22;7350;51.208;4.238;2023-01-04T13:02:27;13.60;99.90
14527;DHT22;7350;51.208;4.238;2023-01-04T13:04:57;13.60;99.90
14527;DHT22;7350;51.208;4.238;2023-01-04T13:07:27;13.60;99.90
14527;DHT22;7350;51.208;4.238;2023-01-04T13:09:58;13.80;99.90
14527;DHT22;7350;51.208;4.238;2023-01-04T13:12:58;13.80;99.90
14527;DHT22;7350;51.208;4.238;2023-01-04T13:15:39;13.90;99.90
14527;DHT22;7350;51.208;4.238;2023-01-04T13:21:12;13.90;99.90
14527;DHT22;7350;51.208;4.238;2023-01-04T13:23:45;13.80;99.90
14527;DHT22;7350;51.208;4.238;2023-01-04T13:26:35;13.80;99.90
14527;DHT22;7350;51.208;4.238;2023-01-04T13:29:11;13.80;99.90
14527;DHT22;7350;51.208;4.238;2023-01-04T13:31:45;13.80;99.90
14527;DHT22;7350;51.208;4.238;2023-01-04T13:34:17;13.80;99.90
14527;DHT22;7350;51.208;4.238;2023-01-04T13:36:57;13.80;99.90
14527;DHT22;7350;51.208;4.238;2023-01-04T13:39:27;13.80;99.90
14527;DHT22;7350;51.208;4.238;2023-01-04T13:41:54;13.80;99.90
14527;DHT22;7350;51.208;4.238;2023-01-04T13:44:43;13.90;99.90
14527;DHT22;7350;51.208;4.238;2023-01-04T13:47:15;13.90;99.90
14527;DHT22;7350;51.208;4.238;2023-01-04T13:49:42;13.80;99.90
14527;DHT22;7350;51.208;4.238;2023-01-04T13:52:18;13.80;99.90
14527;DHT22;7350;51.208;4.238;2023-01-04T13:54:46;13.80;99.90
14527;DHT22;7350;51.208;4.238;2023-01-04T13:57:15;13.90;99.90
14527;DHT22;7350;51.208;4.238;2023-01-04T13:59:47;14.00;99.90
14527;DHT22;7350;51.208;4.238;2023-01-04T14:02:16;13.90;99.90
14527;DHT22;7350;51.208;4.238;2023-01-04T14:04:44;13.90;99.90
14527;DHT22;7350;51.208;4.238;2023-01-04T14:07:18;13.90;99.90
14527;DHT22;7350;51.208;4.238;2023-01-04T14:09:48;13.90;99.90
14527;DHT22;7350;51.208;4.238;2023-01-04T14:12:19;13.80;99.90
14527;DHT22;7350;51.208;4.238;2023-01-04T14:14:51;13.90;99.90
14527;DHT22;7350;51.208;4.238;2023-01-04T14:17:31;13.90;99.90
14527;DHT22;7350;51.208;4.238;2023-01-04T14:20:00;13.90;99.90
14527;DHT22;7350;51.208;4.238;2023-01-04T14:22:41;13.80;99.90
14527;DHT22;7350;51.208;4.238;2023-01-04T14:25:46;13.80;99.90
14527;DHT22;7350;51.208;4.238;2023-01-04T14:28:41;13.70;99.90
14527;DHT22;7350;51.208;4.238;2023-01-04T14:31:32;13.70;99.90
14527;DHT22;7350;51.208;4.238;2023-01-04T14:34:06;13.70;99.90
14527;DHT22;7350;51.208;4.238;2023-01-04T14:36:34;13.60;99.90
14527;DHT22;7350;51.208;4.238;2023-01-04T14:39:14;13.60;99.90
14527;DHT22;7350;51.208;4.238;2023-01-04T14:41:52;13.60;99.90
14527;DHT22;7350;51.208;4.238;2023-01-04T14:44:22;13.50;99.90
14527;DHT22;7350;51.208;4.238;2023-01-04T14:46:52;13.40;99.90
14527;DHT22;7350;51.208;4.238;2023-01-04T14:49:20;13.60;99.90
14527;DHT22;7350;51.208;4.238;2023-01-04T14:51:50;13.50;99.90
14527;DHT22;7350;51.208;4.238;2023-01-04T14:54:18;13.60;99.90
14527;DHT22;7350;51.208;4.238;2023-01-04T14:56:45;13.50;99.90
14527;DHT22;7350;51.208;4.238;2023-01-04T14:59:12;13.30;99.90
14527;DHT22;7350;51.208;4.238;2023-01-04T15:01:39;13.30;99.90
14527;DHT22;7350;51.208;4.238;2023-01-04T15:04:08;13.30;99.90
14527;DHT22;7350;51.208;4.238;2023-01-04T15:06:35;13.30;99.90
14527;DHT22;7350;51.208;4.238;2023-01-04T15:09:02;13.20;99.90
14527;DHT22;7350;51.208;4.238;2023-01-04T15:11:30;13.20;99.90
14527;DHT22;7350;51.208;4.238;2023-01-04T15:13:57;13.30;99.90
14527;DHT22;7350;51.208;4.238;2023-01-04T15:16:24;13.20;99.90
14527;DHT22;7350;51.208;4.238;2023-01-04T15:18:51;13.20;99.90
14527;DHT22;7350;51.208;4.238;2023-01-04T15:21:19;13.20;99.90
14527;DHT22;7350;51.208;4.238;2023-01-04T15:23:46;13.20;99.90
14527;DHT22;7350;51.208;4.238;2023-01-04T15:26:13;13.40;99.90
14527;DHT22;7350;51.208;4.238;2023-01-04T15:28:41;13.30;99.90
14527;DHT22;7350;51.208;4.238;2023-01-04T15:31:09;13.10;99.90
14527;DHT22;7350;51.208;4.238;2023-01-04T15:33:37;13.10;99.90
14527;DHT22;7350;51.208;4.238;2023-01-04T15:36:06;13.20;99.90
14527;DHT22;7350;51.208;4.238;2023-01-04T15:38:34;13.30;99.90
14527;DHT22;7350;51.208;4.238;2023-01-04T15:41:04;13.30;99.90
14527;DHT22;7350;51.208;4.238;2023-01-04T15:43:33;13.20;99.90
14527;DHT22;7350;51.208;4.238;2023-01-04T15:46:02;13.10;99.90
14527;DHT22;7350;51.208;4.238;2023-01-04T15:48:31;13.20;99.90
14527;DHT22;7350;51.208;4.238;2023-01-04T15:51:02;13.20;99.90
14527;DHT22;7350;51.208;4.238;2023-01-04T15:53:29;13.10;99.90
14527;DHT22;7350;51.208;4.238;2023-01-04T15:56:05;13.00;99.90
14527;DHT22;7350;51.208;4.238;2023-01-04T15:58:33;13.00;99.90
14527;DHT22;7350;51.208;4.238;2023-01-04T16:01:06;13.10;99.90
14527;DHT22;7350;51.208;4.238;2023-01-04T16:03:34;13.10;99.90
14527;DHT22;7350;51.208;4.238;2023-01-04T16:06:04;13.20;99.90
14527;DHT22;7350;51.208;4.238;2023-01-04T16:08:31;13.20;99.90
14527;DHT22;7350;51.208;4.238;2023-01-04T16:10:58;13.20;99.90
14527;DHT22;7350;51.208;4.238;2023-01-04T16:13:26;13.00;99.90
14527;DHT22;7350;51.208;4.238;2023-01-04T16:15:53;13.00;99.90
14527;DHT22;7350;51.208;4.238;2023-01-04T16:18:20;13.10;99.90
14527;DHT22;7350;51.208;4.238;2023-01-04T16:20:47;13.10;99.90
14527;DHT22;7350;51.208;4.238;2023-01-04T16:23:14;13.10;99.90
14527;DHT22;7350;51.208;4.238;2023-01-04T16:25:41;13.00;99.90
14527;DHT22;7350;51.208;4.238;2023-01-04T16:28:08;13.00;99.90
14527;DHT22;7350;51.208;4.238;2023-01-04T16:30:37;13.10;99.90
14527;DHT22;7350;51.208;4.238;2023-01-04T16:33:04;13.10;99.90